Time;durP1;ratioP1;P1;durP2;ratioP2;P2;SDS_P1;SDS_P2;PMS_P1;PMS_P2;Temp;Humidity;BMP_temperature;BMP_pressure;BME280_temperature;BME280_humidity;BME280_pressure;Samples;Min_cycle;Max_cycle;Signal;HPM_P1;HPM_P2
2023/01/25 00:01:54;;;;;;;1.70;1.50;;;20.80;64.00;;;;;;5014497;28;20212;-81
2023/01/25 00:04:21;;;;;;;2.03;1.50;;;20.80;64.00;;;;;;5018495;28;21214;-80
2023/01/25 00:06:48;;;;;;;2.20;2.00;;;20.80;64.00;;;;;;5017786;28;20965;-80
2023/01/25 00:09:16;;;;;;;1.70;1.60;;;20.80;64.20;;;;;;5015224;28;20208;-80
2023/01/25 00:11:43;;;;;;;2.40;1.80;;;20.80;64.10;;;;;;5018606;28;20469;-78
2023/01/25 00:14:12;;;;;;;1.77;1.67;;;20.80;64.20;;;;;;5019585;28;20203;-80
2023/01/25 00:16:39;;;;;;;2.20;2.00;;;20.80;64.30;;;;;;5017636;28;20235;-80
2023/01/25 00:19:06;;;;;;;1.92;1.80;;;20.80;64.40;;;;;;5017999;28;20206;-81
2023/01/25 08:51:27;;;;;;;5.93;1.80;;;20.80;64.70;;;;;;6010907;23;20268;31
2023/01/25 08:53:54;;;;;;;1.83;1.70;;;20.80;64.90;;;;;;4864963;29;20237;-87
2023/01/25 08:56:21;;;;;;;3.78;2.10;;;20.90;65.00;;;;;;4868153;29;20221;-87
2023/01/25 08:58:49;;;;;;;2.70;2.35;;;20.90;65.00;;;;;;4863967;29;20226;-85
2023/01/25 09:01:18;;;;;;;4.82;2.50;;;20.90;64.90;;;;;;4864631;29;20225;-86
2023/01/25 09:03:46;;;;;;;13.27;2.35;;;20.90;65.00;;;;;;4866765;29;20213;-91
2023/01/25 09:06:14;;;;;;;3.10;2.67;;;20.90;65.10;;;;;;4866514;29;20595;-85
2023/01/25 09:08:42;;;;;;;6.25;2.70;;;20.90;64.90;;;;;;4866120;29;20204;-87
2023/01/25 09:11:12;;;;;;;4.68;2.75;;;20.90;64.90;;;;;;4866183;29;20256;-84
2023/01/25 09:13:42;;;;;;;5.40;3.10;;;20.90;64.90;;;;;;4866381;29;20668;-86
2023/01/25 09:16:11;;;;;;;4.70;3.15;;;20.90;64.90;;;;;;4867300;29;20212;-84
2023/01/25 09:18:39;;;;;;;5.13;3.10;;;20.90;65.00;;;;;;4866944;29;20209;-84
2023/01/25 09:21:08;;;;;;;5.72;3.25;;;20.90;65.10;;;;;;4867745;29;20560;-81
2023/01/25 09:23:35;;;;;;;5.85;3.78;;;20.90;65.10;;;;;;4866715;29;20917;-84
2023/01/25 09:26:04;;;;;;;7.00;4.73;;;20.90;65.30;;;;;;4866473;29;20209;-83
2023/01/25 09:28:33;;;;;;;6.20;5.60;;;20.80;65.10;;;;;;4865485;29;20849;-81
2023/01/25 09:31:01;;;;;;;7.75;6.95;;;20.80;65.00;;;;;;4866671;29;20207;-83
2023/01/25 09:33:32;;;;;;;7.35;6.65;;;20.80;65.00;;;;;;4864901;29;20214;-80
2023/01/25 09:35:58;;;;;;;6.20;5.60;;;20.80;64.90;;;;;;4866102;29;20211;-81
2023/01/25 09:38:26;;;;;;;7.15;6.47;;;20.80;64.70;;;;;;4866426;29;20610;-82
2023/01/25 09:41:06;;;;;;;6.68;5.97;;;20.80;64.50;;;;;;4865390;29;20214;-81
2023/01/25 09:43:47;;;;;;;11.02;6.80;;;20.80;64.40;;;;;;4865940;29;20332;-82
2023/01/25 09:46:20;;;;;;;5.82;5.28;;;20.80;64.40;;;;;;4866028;29;20456;-83
2023/01/25 09:48:56;;;;;;;7.10;6.40;;;20.70;64.30;;;;;;4867542;29;20801;-79
2023/01/25 09:51:27;;;;;;;6.68;5.63;;;20.70;64.30;;;;;;4868256;29;20253;-83
2023/01/25 09:53:55;;;;;;;10.13;5.38;;;20.70;64.30;;;;;;4865337;29;20233;-82
2023/01/25 09:56:26;;;;;;;5.95;5.35;;;20.70;64.30;;;;;;4867705;29;20249;-81
2023/01/25 09:58:57;;;;;;;27.23;5.78;;;20.80;64.40;;;;;;4865941;29;20206;-81
2023/01/25 10:01:34;;;;;;;6.40;5.53;;;20.80;64.30;;;;;;4865232;29;20207;-81
2023/01/25 10:04:05;;;;;;;6.43;5.82;;;20.80;64.40;;;;;;4865382;29;20223;-82
2023/01/25 10:06:38;;;;;;;6.55;5.95;;;20.80;64.30;;;;;;4864056;29;20204;-84
2023/01/25 10:09:17;;;;;;;5.30;4.90;;;20.80;64.30;;;;;;4864586;29;20568;-86
2023/01/25 10:11:46;;;;;;;6.28;5.68;;;20.80;64.30;;;;;;4864501;29;20218;-87
2023/01/25 10:14:15;;;;;;;6.67;4.87;;;20.90;64.40;;;;;;4865191;29;20216;-81
2023/01/25 10:16:56;;;;;;;7.43;5.40;;;20.90;64.40;;;;;;4865496;29;21105;-81
2023/01/25 10:19:30;;;;;;;6.30;5.75;;;20.80;64.30;;;;;;4864825;29;20220;-82
2023/01/25 10:22:00;;;;;;;7.95;5.47;;;20.80;64.30;;;;;;4866810;29;20698;-83
2023/01/25 10:25:00;;;;;;;7.35;6.15;;;20.90;64.40;;;;;;4867526;29;20200;-80
2023/01/25 10:27:41;;;;;;;6.30;5.70;;;20.90;64.40;;;;;;4865062;29;20204;-85
2023/01/25 10:30:26;;;;;;;6.07;5.50;;;20.90;64.40;;;;;;4867786;29;20204;-87
2023/01/25 10:32:57;;;;;;;6.13;5.53;;;20.80;64.30;;;;;;4867327;29;20203;-84
2023/01/25 10:35:28;;;;;;;6.18;5.60;;;20.80;64.30;;;;;;4868988;29;20273;-84
2023/01/25 10:37:59;;;;;;;5.50;5.00;;;20.80;64.30;;;;;;4870075;29;20214;-84
2023/01/25 10:40:30;;;;;;;6.10;5.60;;;20.80;64.30;;;;;;4868950;29;20212;-83
2023/01/25 10:43:03;;;;;;;6.05;5.55;;;20.80;64.30;;;;;;4867640;29;20230;-82
2023/01/25 10:45:30;;;;;;;5.72;5.22;;;20.80;64.30;;;;;;4870571;29;20303;-85
2023/01/25 10:48:02;;;;;;;7.55;5.32;;;20.80;64.30;;;;;;4873873;29;20204;-82
2023/01/25 10:50:50;;;;;;;5.25;4.82;;;20.80;64.30;;;;;;4870270;29;20213;-84
2023/01/25 10:53:32;;;;;;;10.68;7.53;;;20.80;64.30;;;;;;4869964;29;20240;-84
2023/01/25 10:56:24;;;;;;;10.52;6.72;;;20.70;64.20;;;;;;4868977;29;20201;-83
2023/01/25 10:59:05;;;;;;;7.50;6.70;;;20.70;64.30;;;;;;4866373;29;20206;-85
2023/01/25 11:01:33;;;;;;;8.32;6.72;;;20.70;64.30;;;;;;4866343;29;20212;-88
2023/01/25 11:07:31;;;;;;;8.13;7.32;;;20.70;64.00;;;;;;4875328;29;22325;-85
2023/01/25 11:09:59;;;;;;;9.90;6.68;;;20.70;63.90;;;;;;4873911;29;20209;-85
2023/01/25 11:12:26;;;;;;;9.02;6.22;;;20.70;63.90;;;;;;4876568;29;20254;-85
2023/01/25 11:14:54;;;;;;;7.57;6.88;;;20.80;63.90;;;;;;4875567;29;20320;-89
2023/01/25 11:17:26;;;;;;;6.78;6.10;;;20.80;64.50;;;;;;4861209;29;20746;-87
2023/01/25 11:20:20;;;;;;;7.40;5.55;;;20.80;64.50;;;;;;4867343;29;20231;-81
2023/01/25 11:22:52;;;;;;;8.85;7.10;;;20.80;64.80;;;;;;4840199;29;20728;-86
2023/01/25 11:25:27;;;;;;;9.55;6.82;;;20.80;64.90;;;;;;4872288;29;20696;-86
2023/01/25 11:28:11;;;;;;;6.90;6.20;;;20.80;65.00;;;;;;4865183;29;20211;-85
2023/01/25 11:30:39;;;;;;;7.57;6.78;;;20.80;65.10;;;;;;4870766;29;20204;-89
2023/01/25 11:33:10;;;;;;;6.82;6.13;;;20.80;65.20;;;;;;4871823;29;20580;-87
2023/01/25 11:35:44;;;;;;;6.93;6.22;;;20.80;65.40;;;;;;4871155;29;20241;-85
2023/01/25 11:38:14;;;;;;;6.00;5.40;;;20.80;65.40;;;;;;4874358;29;20201;-84
2023/01/25 11:40:49;;;;;;;7.32;5.35;;;20.80;65.50;;;;;;4877483;29;20294;-84
2023/01/25 11:43:41;;;;;;;6.78;6.18;;;20.80;65.60;;;;;;4879456;29;20232;-85
2023/01/25 11:46:33;;;;;;;6.10;5.50;;;20.80;65.60;;;;;;4875570;29;20204;-85
2023/01/25 11:49:14;;;;;;;6.35;5.75;;;20.80;65.70;;;;;;4869750;29;20219;-85
2023/01/25 11:51:48;;;;;;;7.25;6.00;;;20.80;65.70;;;;;;4868422;29;20646;-84
2023/01/25 11:54:45;;;;;;;6.30;5.70;;;20.80;65.70;;;;;;4874903;29;20221;-84
2023/01/25 11:57:35;;;;;;;7.05;6.10;;;20.80;65.90;;;;;;4866695;29;20216;-83
2023/01/25 12:00:26;;;;;;;6.43;5.80;;;20.80;66.00;;;;;;4867721;29;20212;-85
2023/01/25 12:03:21;;;;;;;6.40;5.32;;;20.80;66.00;;;;;;4866017;29;20217;-85
2023/01/25 12:05:59;;;;;;;6.35;4.78;;;20.80;66.10;;;;;;4869202;29;20204;-83
2023/01/25 12:08:42;;;;;;;6.78;5.40;;;20.90;66.20;;;;;;4869997;29;20209;-83
2023/01/25 12:11:16;;;;;;;5.70;5.15;;;20.90;66.30;;;;;;4865365;29;20270;-85
2023/01/25 12:13:53;;;;;;;6.60;5.75;;;20.90;66.30;;;;;;4866546;29;20203;-84
2023/01/25 12:16:42;;;;;;;10.07;4.97;;;20.90;66.40;;;;;;4868490;29;20473;-90
2023/01/25 12:19:28;;;;;;;6.25;5.75;;;20.90;66.40;;;;;;4865708;29;20206;-85
2023/01/25 12:22:09;;;;;;;5.55;5.05;;;20.90;66.60;;;;;;4870908;29;20232;-86
2023/01/25 12:24:44;;;;;;;5.97;5.15;;;20.90;66.50;;;;;;4870806;29;20215;-86
2023/01/25 12:27:27;;;;;;;5.32;4.88;;;20.90;66.50;;;;;;4868746;29;20299;-86
2023/01/25 12:29:58;;;;;;;6.35;5.80;;;20.90;66.60;;;;;;4869479;29;20212;-83
2023/01/25 12:32:33;;;;;;;6.03;5.43;;;21.00;66.70;;;;;;4890750;23;20217;-59
2023/01/25 12:35:13;;;;;;;6.47;5.93;;;20.90;66.70;;;;;;4881038;29;20586;-59
2023/01/25 12:37:41;;;;;;;5.50;5.10;;;21.00;66.80;;;;;;4863642;29;20476;-60
2023/01/25 12:40:13;;;;;;;5.70;5.20;;;20.90;66.70;;;;;;4864071;29;20661;-59
2023/01/25 12:42:44;;;;;;;5.78;5.28;;;20.90;66.80;;;;;;4861683;29;20704;-59
2023/01/25 12:45:15;;;;;;;6.00;5.50;;;20.90;66.80;;;;;;4862945;29;20203;-56
2023/01/25 12:47:45;;;;;;;7.28;6.50;;;20.90;66.70;;;;;;4861854;29;20223;-61
2023/01/25 12:50:18;;;;;;;7.05;5.85;;;20.90;66.70;;;;;;4864184;29;20677;-61
2023/01/25 12:52:49;;;;;;;6.55;6.00;;;20.90;66.70;;;;;;4863939;29;20626;-61
2023/01/25 12:55:17;;;;;;;6.40;5.70;;;20.90;66.60;;;;;;4862251;29;20208;-61
2023/01/25 12:57:51;;;;;;;6.40;5.80;;;20.90;66.60;;;;;;4863040;29;20209;-62
2023/01/25 13:00:24;;;;;;;5.40;5.00;;;20.90;66.60;;;;;;4863168;29;20201;-62
2023/01/25 13:03:01;;;;;;;5.47;4.97;;;20.90;66.50;;;;;;4862891;29;20234;-60
2023/01/25 13:05:36;;;;;;;5.95;5.35;;;20.90;66.50;;;;;;4862371;29;20207;-64
2023/01/25 13:08:17;;;;;;;6.43;5.82;;;20.90;66.40;;;;;;4861117;29;20216;-57
2023/01/25 13:10:48;;;;;;;6.22;5.72;;;20.80;66.30;;;;;;4863723;29;20208;-62
2023/01/25 13:13:24;;;;;;;5.65;5.05;;;20.90;66.30;;;;;;4861611;29;20247;-68
2023/01/25 13:15:51;;;;;;;6.15;5.50;;;20.80;66.10;;;;;;4861776;29;20269;-68
2023/01/25 13:18:41;;;;;;;5.25;4.82;;;20.90;66.10;;;;;;4863883;29;20212;-67
2023/01/25 13:21:39;;;;;;;6.47;5.30;;;20.90;66.10;;;;;;4862730;29;20216;-67
2023/01/25 13:24:18;;;;;;;6.88;5.85;;;20.90;66.10;;;;;;4861004;29;20685;-68
2023/01/25 13:26:59;;;;;;;6.30;5.70;;;20.90;66.10;;;;;;4863522;29;20208;-67
2023/01/25 13:29:57;;;;;;;5.80;5.22;;;20.90;66.20;;;;;;4860990;29;20212;-65
2023/01/25 13:32:55;;;;;;;6.80;6.20;;;21.00;66.40;;;;;;4862783;29;20247;-70
2023/01/25 13:35:27;;;;;;;5.90;5.25;;;20.90;66.10;;;;;;4861613;29;20558;-65
2023/01/25 13:38:01;;;;;;;7.50;6.80;;;21.00;66.40;;;;;;4863977;29;20863;-68
2023/01/25 13:40:32;;;;;;;5.78;4.93;;;20.90;66.30;;;;;;4863594;29;20469;-65
2023/01/25 13:45:43;;;;;;;5.55;5.05;;;20.80;66.60;;;;;;4879576;28;20605;-84
2023/01/25 13:48:15;;;;;;;5.90;5.40;;;20.90;66.70;;;;;;4876837;29;20695;-85
2023/01/25 13:50:48;;;;;;;8.35;5.00;;;20.80;66.70;;;;;;4882894;29;20207;-80
2023/01/25 13:53:22;;;;;;;6.00;5.28;;;20.90;66.90;;;;;;4882128;29;20291;-84
2023/01/25 13:55:51;;;;;;;6.97;6.28;;;20.90;67.00;;;;;;4881838;29;20208;-82
2023/01/25 13:58:20;;;;;;;6.28;5.47;;;20.80;66.80;;;;;;4879636;29;20663;-83
2023/01/25 14:00:49;;;;;;;8.00;6.35;;;20.90;67.00;;;;;;4880364;29;20208;-83
2023/01/25 14:03:17;;;;;;;9.60;6.00;;;20.80;67.00;;;;;;4880955;29;20231;-82
2023/01/25 14:05:50;;;;;;;6.32;5.72;;;20.80;67.10;;;;;;4881082;29;20208;-86
2023/01/25 14:08:20;;;;;;;6.78;5.90;;;20.80;67.10;;;;;;4879545;29;20287;-84
2023/01/25 14:10:48;;;;;;;7.50;5.95;;;20.80;67.10;;;;;;4879056;29;20203;-80
2023/01/25 14:13:16;;;;;;;5.75;5.25;;;20.80;67.10;;;;;;4879423;29;20665;-85
2023/01/25 14:15:53;;;;;;;8.35;6.13;;;20.80;67.20;;;;;;4879009;29;20211;-83
2023/01/25 14:18:21;;;;;;;6.22;5.50;;;20.80;67.20;;;;;;4880810;29;20207;-84
2023/01/25 14:20:49;;;;;;;8.32;5.80;;;20.80;67.30;;;;;;4880883;29;20213;-83
2023/01/25 14:23:26;;;;;;;7.00;6.00;;;20.80;67.30;;;;;;4878564;29;20690;-89
2023/01/25 14:25:54;;;;;;;6.23;5.67;;;20.80;67.30;;;;;;4872561;29;20227;-87
2023/01/25 14:28:22;;;;;;;5.95;5.45;;;20.90;67.50;;;;;;4879353;29;20463;-82
2023/01/25 14:30:53;;;;;;;5.00;4.60;;;20.80;67.40;;;;;;4879651;29;20207;-83
2023/01/25 14:33:25;;;;;;;5.45;5.05;;;20.90;67.60;;;;;;4879973;29;20230;-84
2023/01/25 14:35:53;;;;;;;5.90;5.40;;;20.90;67.60;;;;;;4878896;29;20226;-83
2023/01/25 14:38:28;;;;;;;6.63;5.85;;;20.90;67.70;;;;;;4880449;29;20213;-86
2023/01/25 14:40:58;;;;;;;11.90;9.25;;;20.80;67.60;;;;;;4878550;29;20267;-83
2023/01/25 14:43:26;;;;;;;7.82;7.00;;;20.80;66.70;;;;;;4876886;29;20698;-79
2023/01/25 14:45:52;;;;;;;9.32;7.57;;;20.70;66.90;;;;;;4877445;29;20220;-79
2023/01/25 14:48:36;;;;;;;8.88;6.68;;;20.70;67.10;;;;;;4881131;29;20566;-79
2023/01/25 14:51:06;;;;;;;6.50;5.70;;;20.70;67.10;;;;;;4881532;29;20206;-79
2023/01/25 14:53:39;;;;;;;7.75;5.78;;;20.70;67.10;;;;;;4880096;29;20207;-79
2023/01/25 14:56:12;;;;;;;7.03;6.38;;;20.70;67.10;;;;;;4879267;29;20223;-78
2023/01/25 14:58:42;;;;;;;10.43;6.38;;;20.70;67.10;;;;;;4878939;29;20207;-80
2023/01/25 15:01:23;;;;;;;6.75;6.15;;;20.70;67.10;;;;;;4882114;29;20556;-78
2023/01/25 15:03:50;;;;;;;6.90;5.70;;;20.70;67.00;;;;;;4880873;29;20231;-79
2023/01/25 15:06:17;;;;;;;6.40;5.85;;;20.70;67.10;;;;;;4882203;29;20207;-78
2023/01/25 15:08:45;;;;;;;6.65;5.97;;;20.70;67.00;;;;;;4880499;29;20207;-80
2023/01/25 15:11:44;;;;;;;6.75;5.88;;;20.70;67.00;;;;;;4880777;29;20215;-79
2023/01/25 15:14:21;;;;;;;6.63;5.90;;;20.70;67.00;;;;;;4880789;29;20206;-78
2023/01/25 15:16:48;;;;;;;6.80;5.97;;;20.70;66.80;;;;;;4880577;29;20660;-79
2023/01/25 15:19:22;;;;;;;5.80;5.30;;;20.70;67.70;;;;;;4881674;29;20655;-79
2023/01/25 15:21:49;;;;;;;6.00;5.45;;;20.60;66.70;;;;;;4883090;29;20207;-80
2023/01/25 15:24:18;;;;;;;5.93;5.25;;;20.60;66.70;;;;;;4882591;29;20234;-79
2023/01/25 15:26:52;;;;;;;6.20;5.60;;;20.60;66.70;;;;;;4883726;29;20216;-78
2023/01/25 15:29:21;;;;;;;6.88;6.28;;;20.60;66.70;;;;;;4884042;29;20212;-79
2023/01/25 15:31:50;;;;;;;6.30;5.70;;;20.60;66.70;;;;;;4882132;29;20207;-79
2023/01/25 15:34:18;;;;;;;5.25;4.85;;;20.60;66.70;;;;;;4882347;29;20215;-78
2023/01/25 15:36:45;;;;;;;9.73;6.38;;;20.60;66.70;;;;;;4881772;29;20978;-79
2023/01/25 15:39:15;;;;;;;7.32;6.63;;;20.60;66.50;;;;;;4885395;29;20215;-79
2023/01/25 15:41:43;;;;;;;7.53;6.53;;;20.60;66.50;;;;;;4884801;29;20212;-81
2023/01/25 15:44:11;;;;;;;9.77;6.93;;;20.60;66.50;;;;;;4884460;29;20234;-79
2023/01/25 15:46:41;;;;;;;6.07;5.65;;;20.60;66.50;;;;;;4884366;29;20237;-79
2023/01/25 15:49:11;;;;;;;7.72;4.90;;;20.60;66.50;;;;;;4883675;29;20552;-79
2023/01/25 15:51:38;;;;;;;7.25;6.55;;;20.60;66.40;;;;;;4883349;29;20236;-79
2023/01/25 15:54:06;;;;;;;8.77;6.43;;;20.60;66.50;;;;;;4881849;29;20202;-79
2023/01/25 15:56:36;;;;;;;6.22;5.63;;;20.60;66.50;;;;;;4882539;29;20528;-79
2023/01/25 15:59:07;;;;;;;5.72;5.20;;;20.60;66.50;;;;;;4884301;29;20226;-79
2023/01/25 16:01:34;;;;;;;6.50;6.00;;;20.60;66.40;;;;;;4883724;29;20262;-78
2023/01/25 16:04:00;;;;;;;5.85;5.10;;;20.60;66.50;;;;;;4881729;29;20595;-78
2023/01/25 16:06:40;;;;;;;6.93;6.30;;;20.60;66.50;;;;;;4884456;29;20208;-78
2023/01/25 16:09:17;;;;;;;6.35;5.75;;;20.60;66.40;;;;;;4881506;29;20205;-79
2023/01/25 16:11:45;;;;;;;5.30;4.80;;;20.60;66.40;;;;;;4882431;29;20263;-79
2023/01/25 16:14:13;;;;;;;6.72;5.45;;;20.50;66.30;;;;;;4882152;29;20227;-78
2023/01/25 16:16:43;;;;;;;7.35;5.15;;;20.50;66.30;;;;;;4882437;29;20325;-79
2023/01/25 16:19:15;;;;;;;5.88;5.38;;;20.50;66.30;;;;;;4881542;29;20207;-79
2023/01/25 16:21:45;;;;;;;6.35;5.75;;;20.50;66.30;;;;;;4883507;29;20227;-78
2023/01/25 16:24:12;;;;;;;6.82;6.22;;;20.50;66.30;;;;;;4881034;29;20242;-80
2023/01/25 16:26:43;;;;;;;6.40;5.80;;;20.50;66.20;;;;;;4884484;29;20504;-78
2023/01/25 16:29:11;;;;;;;5.63;5.13;;;20.50;66.20;;;;;;4882262;29;20681;-78
2023/01/25 16:31:39;;;;;;;6.75;6.25;;;20.50;66.20;;;;;;4884513;29;20527;-79
2023/01/25 16:34:05;;;;;;;5.53;5.03;;;20.50;66.20;;;;;;4881902;29;20215;-79
2023/01/25 16:36:33;;;;;;;6.97;6.38;;;20.50;66.20;;;;;;4882172;29;20210;-79
2023/01/25 16:39:08;;;;;;;6.00;5.50;;;20.50;66.20;;;;;;4883194;29;20210;-79
2023/01/25 16:41:35;;;;;;;7.15;6.20;;;20.50;66.20;;;;;;4883271;29;20202;-79
2023/01/25 16:44:02;;;;;;;6.50;5.85;;;20.50;66.20;;;;;;4883311;29;20237;-79
2023/01/25 16:46:29;;;;;;;7.05;5.40;;;20.40;66.10;;;;;;4881899;29;20210;-78
2023/01/25 16:48:59;;;;;;;5.50;5.00;;;20.40;66.00;;;;;;4881764;29;20207;-79
2023/01/25 16:51:27;;;;;;;6.95;5.38;;;20.40;66.00;;;;;;4883628;29;20585;-79
2023/01/25 16:53:56;;;;;;;6.93;6.25;;;20.40;66.00;;;;;;4880078;29;20197;-80
2023/01/25 16:56:24;;;;;;;7.53;5.55;;;20.40;66.00;;;;;;4882511;29;20206;-81
2023/01/25 16:58:53;;;;;;;6.45;5.78;;;20.40;66.00;;;;;;4882232;29;20203;-80
2023/01/25 17:01:22;;;;;;;6.05;5.55;;;20.40;66.00;;;;;;4881253;29;20212;-80
2023/01/25 17:03:49;;;;;;;5.03;4.63;;;20.40;66.00;;;;;;4884540;29;20737;-80
2023/01/25 17:06:20;;;;;;;6.50;5.57;;;20.40;66.00;;;;;;4881986;29;20219;-80
2023/01/25 17:08:47;;;;;;;6.40;5.88;;;20.40;66.00;;;;;;4883124;29;20646;-80
2023/01/25 17:11:14;;;;;;;5.70;5.20;;;20.40;66.00;;;;;;4882452;29;20226;-80
2023/01/25 17:13:41;;;;;;;6.00;5.43;;;20.40;66.00;;;;;;4881801;29;20298;-80
2023/01/25 17:16:08;;;;;;;5.82;5.35;;;20.40;66.00;;;;;;4882328;29;20573;-80
2023/01/25 17:18:34;;;;;;;6.60;5.90;;;20.40;66.00;;;;;;4882130;29;20207;-81
2023/01/25 17:21:03;;;;;;;5.95;5.45;;;20.40;66.00;;;;;;4883165;29;20246;-80
2023/01/25 17:23:33;;;;;;;6.15;5.55;;;20.40;66.00;;;;;;4883403;29;20207;-80
2023/01/25 17:26:03;;;;;;;6.28;5.68;;;20.40;66.00;;;;;;4880326;29;20219;-80
2023/01/25 17:28:30;;;;;;;6.22;5.63;;;20.30;65.90;;;;;;4882539;29;20222;-80
2023/01/25 17:30:57;;;;;;;5.82;5.32;;;20.30;65.90;;;;;;4882285;29;20313;-80
2023/01/25 17:33:23;;;;;;;6.10;5.50;;;20.40;66.00;;;;;;4884217;29;20214;-80
2023/01/25 17:35:57;;;;;;;6.38;5.78;;;20.40;66.00;;;;;;4879920;29;20652;-80
2023/01/25 17:38:24;;;;;;;6.35;5.85;;;20.30;65.90;;;;;;4880806;29;20382;-80
2023/01/25 17:40:52;;;;;;;5.57;5.05;;;20.40;66.00;;;;;;4882955;29;20227;-80
2023/01/25 17:43:19;;;;;;;6.25;5.65;;;20.30;65.90;;;;;;4882475;29;20203;-80
2023/01/25 17:45:46;;;;;;;6.25;5.70;;;20.30;65.90;;;;;;4881187;29;20237;-80
2023/01/25 17:48:13;;;;;;;7.00;5.30;;;20.30;65.90;;;;;;4880773;29;20215;-80
2023/01/25 17:50:40;;;;;;;5.60;5.10;;;20.30;65.90;;;;;;4881498;29;20223;-80
2023/01/25 17:53:07;;;;;;;6.53;5.93;;;20.30;65.90;;;;;;4882076;29;20601;-80
2023/01/25 17:55:35;;;;;;;6.00;5.50;;;20.30;65.90;;;;;;4880122;29;20203;-80
2023/01/25 17:58:04;;;;;;;7.00;6.30;;;20.30;65.90;;;;;;4881068;29;20240;-80
2023/01/25 18:00:32;;;;;;;5.32;4.90;;;20.30;65.90;;;;;;4880144;29;20213;-81
2023/01/25 18:02:58;;;;;;;7.18;4.82;;;20.30;65.80;;;;;;4879849;29;20205;-80
2023/01/25 18:05:27;;;;;;;6.32;5.72;;;20.30;65.90;;;;;;4878269;29;20737;-80
2023/01/25 18:07:54;;;;;;;6.18;5.65;;;20.30;65.90;;;;;;4881659;29;20208;-80
2023/01/25 18:10:20;;;;;;;6.47;5.95;;;20.30;65.90;;;;;;4882386;29;20214;-80
2023/01/25 18:12:49;;;;;;;6.85;6.22;;;20.30;65.80;;;;;;4881670;29;20566;-80
2023/01/25 18:15:19;;;;;;;6.07;5.57;;;20.30;65.80;;;;;;4880615;29;20657;-80
2023/01/25 18:17:46;;;;;;;11.20;6.80;;;20.30;65.90;;;;;;4881016;29;20214;-80
2023/01/25 18:20:13;;;;;;;6.45;5.95;;;20.30;65.80;;;;;;4883363;29;20217;-80
2023/01/25 18:22:40;;;;;;;5.85;5.35;;;20.30;65.80;;;;;;4882332;29;20702;-80
2023/01/25 18:25:27;;;;;;;6.40;5.80;;;20.30;65.80;;;;;;4882595;29;20717;-80
2023/01/25 18:27:53;;;;;;;5.68;5.18;;;20.20;65.80;;;;;;4883769;29;20215;-80
2023/01/25 18:30:32;;;;;;;8.23;5.55;;;20.20;65.70;;;;;;4882253;29;20769;-80
2023/01/25 18:33:00;;;;;;;5.82;5.32;;;20.20;65.80;;;;;;4880210;29;20609;-79
2023/01/25 18:35:28;;;;;;;7.10;6.40;;;20.20;65.70;;;;;;4881553;29;20294;-81
2023/01/25 18:37:55;;;;;;;5.35;4.85;;;20.20;65.70;;;;;;4882083;29;20222;-80
2023/01/25 18:40:22;;;;;;;6.15;5.55;;;20.20;65.70;;;;;;4879410;29;20715;-80
2023/01/25 18:42:49;;;;;;;6.60;5.95;;;20.20;65.80;;;;;;4880331;29;20783;-80
2023/01/25 18:45:16;;;;;;;6.20;5.60;;;20.20;65.70;;;;;;4881966;29;20226;-81
2023/01/25 18:47:44;;;;;;;5.88;5.22;;;20.20;65.70;;;;;;4879898;29;20213;-80
2023/01/25 18:50:12;;;;;;;6.18;5.68;;;20.20;65.70;;;;;;4880744;29;20611;-80
2023/01/25 18:52:39;;;;;;;5.55;5.05;;;20.20;65.70;;;;;;4882974;29;20323;-79
2023/01/25 18:55:06;;;;;;;5.55;5.05;;;20.20;65.70;;;;;;4880797;29;20222;-80
2023/01/25 18:57:33;;;;;;;6.32;5.82;;;20.20;65.70;;;;;;4885289;29;20207;-81
2023/01/25 19:00:00;;;;;;;7.05;6.35;;;20.20;65.80;;;;;;4886020;29;20518;-80
2023/01/25 19:02:28;;;;;;;6.00;5.40;;;20.20;65.70;;;;;;4883165;29;20214;-79
2023/01/25 19:04:56;;;;;;;5.80;5.25;;;20.20;65.70;;;;;;4886967;29;20227;-80
2023/01/25 19:07:23;;;;;;;6.38;5.78;;;20.20;65.70;;;;;;4884114;29;20227;-80
2023/01/25 19:09:49;;;;;;;6.47;5.90;;;20.10;65.60;;;;;;4883359;29;20692;-80
2023/01/25 19:12:18;;;;;;;5.90;5.40;;;20.20;65.70;;;;;;4885718;29;20729;-80
2023/01/25 19:14:45;;;;;;;5.63;5.15;;;20.20;65.70;;;;;;4879271;29;20206;-85
2023/01/25 19:17:12;;;;;;;5.70;5.20;;;20.20;65.70;;;;;;4883727;29;20646;-82
2023/01/25 19:19:39;;;;;;;5.82;5.20;;;20.20;65.70;;;;;;4882060;29;20217;-81
2023/01/25 19:22:07;;;;;;;7.13;6.35;;;20.20;65.60;;;;;;4883486;29;20848;-81
2023/01/25 19:24:33;;;;;;;7.72;7.03;;;20.20;65.50;;;;;;4884526;29;20225;-81
2023/01/25 19:27:00;;;;;;;6.13;5.63;;;20.20;65.60;;;;;;4881093;29;20698;-86
2023/01/25 19:29:30;;;;;;;7.15;6.03;;;20.20;65.60;;;;;;4879627;29;20215;-91
2023/01/25 19:32:00;;;;;;;7.13;6.50;;;20.20;65.60;;;;;;4886847;29;20199;-89
2023/01/25 19:34:27;;;;;;;7.18;6.47;;;20.20;65.60;;;;;;4888997;29;20218;-87
2023/01/25 19:36:54;;;;;;;7.05;6.35;;;20.20;65.60;;;;;;4886531;29;20658;-87
2023/01/25 19:39:22;;;;;;;10.30;6.25;;;20.20;65.60;;;;;;4886140;29;20211;-87
2023/01/25 19:41:52;;;;;;;5.97;5.47;;;20.20;65.60;;;;;;4886857;29;20577;-83
2023/01/25 19:44:23;;;;;;;6.55;5.85;;;20.30;65.80;;;;;;4883797;29;20223;-86
2023/01/25 19:46:56;;;;;;;8.15;6.60;;;20.30;65.80;;;;;;4872068;29;20299;-86
2023/01/25 19:49:23;;;;;;;7.00;6.30;;;20.30;65.90;;;;;;4886990;29;20288;-86
2023/01/25 19:54:59;;;;;;;8.10;7.40;;;20.30;66.00;;;;;;4886961;29;20206;-83
2023/01/25 19:57:50;;;;;;;8.52;7.72;;;20.30;66.90;;;;;;4887321;29;20496;-85
2023/01/25 20:00:19;;;;;;;9.70;8.82;;;20.30;66.80;;;;;;4885488;29;20224;-86
2023/01/25 20:02:46;;;;;;;7.82;7.03;;;20.30;65.90;;;;;;4887551;29;20210;-88
2023/01/25 20:05:16;;;;;;;6.82;6.22;;;20.30;65.90;;;;;;4881186;29;20226;-88
2023/01/25 20:07:44;;;;;;;8.30;7.53;;;20.40;66.00;;;;;;4880115;29;20672;-80
2023/01/25 20:10:12;;;;;;;7.53;6.82;;;20.30;65.90;;;;;;4880877;29;20321;-81
2023/01/25 20:12:39;;;;;;;8.35;7.57;;;20.30;66.00;;;;;;4882344;29;20302;-82
2023/01/25 20:15:07;;;;;;;7.03;6.32;;;20.30;66.00;;;;;;4879701;29;20203;-81
2023/01/25 20:20:45;;;;;;;7.07;6.38;;;20.30;66.10;;;;;;4881577;29;20233;-80
2023/01/25 20:26:18;;;;;;;8.15;7.45;;;20.30;66.00;;;;;;4877011;29;20228;-81
2023/01/25 20:28:46;;;;;;;6.43;5.82;;;20.30;66.00;;;;;;4878957;29;20310;-80
2023/01/25 20:31:21;;;;;;;7.35;6.65;;;20.30;66.00;;;;;;4882427;29;20232;-81
2023/01/25 20:33:48;;;;;;;10.15;7.72;;;20.30;66.00;;;;;;4881192;29;20211;-81
2023/01/25 20:36:16;;;;;;;8.07;7.30;;;20.30;66.00;;;;;;4884818;29;20200;-81
2023/01/25 20:38:43;;;;;;;6.30;5.68;;;20.30;65.90;;;;;;4882953;29;20221;-81
2023/01/25 20:41:13;;;;;;;7.75;6.97;;;20.30;66.00;;;;;;4883457;29;20214;-81
2023/01/25 20:43:46;;;;;;;7.20;6.50;;;20.30;65.90;;;;;;4882145;29;20223;-81
2023/01/25 20:46:13;;;;;;;7.70;6.90;;;20.30;65.90;;;;;;4881996;29;20232;-82
2023/01/25 20:48:40;;;;;;;7.55;6.85;;;20.30;65.80;;;;;;4882441;29;20289;-81
2023/01/25 20:51:09;;;;;;;7.38;6.75;;;20.30;65.90;;;;;;4881551;29;20627;-80
2023/01/25 20:53:36;;;;;;;7.32;6.40;;;20.30;65.90;;;;;;4879981;29;20204;-82
2023/01/25 20:56:04;;;;;;;7.55;6.82;;;20.30;65.80;;;;;;4880567;29;20577;-80
2023/01/25 20:58:31;;;;;;;8.13;6.90;;;20.30;65.80;;;;;;4882010;29;20717;-80
2023/01/25 21:01:00;;;;;;;7.32;6.72;;;20.30;65.80;;;;;;4881822;29;20207;-79
2023/01/25 21:03:27;;;;;;;6.88;6.18;;;20.30;65.80;;;;;;4880371;29;20275;-80
2023/01/25 21:05:56;;;;;;;6.97;6.38;;;20.30;65.80;;;;;;4880171;29;20227;-80
2023/01/25 21:08:24;;;;;;;7.25;6.55;;;20.30;65.80;;;;;;4881539;29;20230;-81
2023/01/25 21:10:53;;;;;;;6.97;6.32;;;20.30;65.80;;;;;;4880700;29;20282;-82
2023/01/25 21:13:20;;;;;;;7.30;6.60;;;20.30;65.80;;;;;;4882560;29;20235;-81
2023/01/25 21:16:00;;;;;;;6.80;6.20;;;20.30;65.80;;;;;;4880240;29;20298;-83
2023/01/25 21:18:28;;;;;;;8.50;7.30;;;20.30;65.80;;;;;;4879897;29;20215;-80
2023/01/25 21:21:03;;;;;;;7.40;6.70;;;20.30;65.70;;;;;;4881281;29;20211;-80
2023/01/25 21:23:32;;;;;;;6.85;6.20;;;20.30;65.70;;;;;;4879623;29;20736;-82
2023/01/25 21:25:59;;;;;;;7.03;6.43;;;20.30;65.70;;;;;;4883982;29;20225;-81
2023/01/25 21:28:26;;;;;;;8.00;7.25;;;20.30;65.70;;;;;;4881148;29;20235;-80
2023/01/25 21:30:53;;;;;;;7.85;7.13;;;20.30;65.70;;;;;;4880274;29;20274;-82
2023/01/25 21:33:21;;;;;;;7.53;6.82;;;20.30;65.70;;;;;;4878599;29;20639;-82
2023/01/25 21:35:49;;;;;;;7.63;6.93;;;20.30;65.70;;;;;;4883792;29;20196;-80
2023/01/25 21:38:16;;;;;;;7.72;6.95;;;20.30;65.70;;;;;;4879543;29;20287;-82
2023/01/25 21:40:43;;;;;;;7.40;6.65;;;20.30;65.70;;;;;;4880759;29;20278;-81
2023/01/25 21:43:10;;;;;;;6.60;5.95;;;20.30;65.70;;;;;;4879390;29;20287;-81
2023/01/25 21:54:13;;;;;;;7.60;6.90;;;20.30;65.70;;;;;;4856501;29;20217;-80
2023/01/25 21:56:40;;;;;;;7.07;6.40;;;20.30;65.70;;;;;;4881133;29;20214;-79
2023/01/25 21:59:07;;;;;;;7.43;6.72;;;20.30;65.70;;;;;;4882039;29;20624;-81
2023/01/25 22:01:34;;;;;;;8.32;6.97;;;20.30;65.70;;;;;;4880735;29;20207;-81